Time;durP1;ratioP1;P1;durP2;ratioP2;P2;SDS_P1;SDS_P2;PMS_P1;PMS_P2;Temp;Humidity;BMP_temperature;BMP_pressure;BME280_temperature;BME280_humidity;BME280_pressure;Samples;Min_cycle;Max_cycle;Signal;HPM_P1;HPM_P2
2024/01/13 00:02:00;;;;;;;59.47;18.13;;;;;;;-2.48;100.00;97295.31;4980246;28;20222;-67
2024/01/13 00:04:28;;;;;;;54.03;16.80;;;;;;;-2.49;100.00;97293.66;4979698;28;20215;-67
2024/01/13 00:06:54;;;;;;;64.60;18.40;;;;;;;-2.51;100.00;97298.03;4980473;28;20233;-67
2024/01/13 00:09:21;;;;;;;63.83;19.77;;;;;;;-2.32;100.00;97299.69;4983410;28;20204;-67
2024/01/13 00:11:48;;;;;;;55.60;18.63;;;;;;;-2.38;100.00;97301.69;4981863;28;20215;-67
2024/01/13 00:14:14;;;;;;;69.73;22.23;;;;;;;-2.50;100.00;97298.88;4979374;28;20214;-67
2024/01/13 00:16:40;;;;;;;66.57;20.83;;;;;;;-2.43;100.00;97288.19;4979716;28;20743;-67
2024/01/13 00:19:07;;;;;;;61.97;20.40;;;;;;;-2.27;100.00;97282.19;4986815;28;20258;-67
2024/01/13 00:21:35;;;;;;;61.40;20.00;;;;;;;-2.47;100.00;97278.09;4980929;28;20200;-67
2024/01/13 00:24:01;;;;;;;58.33;17.67;;;;;;;-2.61;100.00;97286.50;4980341;28;20200;-66
2024/01/13 00:26:28;;;;;;;59.80;19.00;;;;;;;-2.60;100.00;97277.00;4979209;28;20236;-67
2024/01/13 00:28:55;;;;;;;66.47;19.57;;;;;;;-2.62;100.00;97283.97;4979872;28;20263;-66
2024/01/13 00:31:21;;;;;;;63.93;21.10;;;;;;;-2.63;100.00;97278.00;4985348;28;20211;-67
2024/01/13 00:33:48;;;;;;;59.30;18.40;;;;;;;-2.80;100.00;97282.25;4979639;28;20219;-67
2024/01/13 00:36:14;;;;;;;60.27;18.93;;;;;;;-2.64;100.00;97278.06;4978861;28;20706;-67
2024/01/13 00:38:42;;;;;;;55.27;19.20;;;;;;;-2.67;100.00;97275.63;4980031;28;20213;-67
2024/01/13 00:41:08;;;;;;;50.87;17.77;;;;;;;-2.89;100.00;97280.13;4979285;28;20223;-67
2024/01/13 00:43:35;;;;;;;64.03;20.93;;;;;;;-2.72;100.00;97273.28;4979435;28;20196;-67
2024/01/13 00:46:01;;;;;;;65.87;21.33;;;;;;;-2.87;100.00;97263.66;4979197;28;20223;-67
2024/01/13 00:48:28;;;;;;;61.30;21.10;;;;;;;-2.94;100.00;97262.28;4988087;28;20210;-67
2024/01/13 00:50:54;;;;;;;56.57;18.03;;;;;;;-2.95;100.00;97255.47;4980518;28;20203;-67
2024/01/13 00:53:21;;;;;;;68.37;20.23;;;;;;;-2.93;100.00;97253.66;4979645;28;20682;-67
2024/01/13 00:55:49;;;;;;;65.17;21.03;;;;;;;-2.71;100.00;97251.72;4978990;28;20242;-67
2024/01/13 00:58:16;;;;;;;67.03;21.60;;;;;;;-2.86;100.00;97257.59;4979153;28;20210;-67
2024/01/13 01:00:42;;;;;;;63.37;20.67;;;;;;;-2.86;100.00;97254.22;4979321;28;20609;-67
2024/01/13 01:03:09;;;;;;;64.90;20.07;;;;;;;-2.80;100.00;97254.75;4978980;28;20212;-66
2024/01/13 01:05:35;;;;;;;65.40;20.00;;;;;;;-3.08;100.00;97247.53;4978370;28;20888;-67
2024/01/13 01:08:02;;;;;;;74.77;21.97;;;;;;;-3.16;100.00;97262.53;4978901;28;20230;-67
2024/01/13 01:10:28;;;;;;;72.67;22.20;;;;;;;-2.96;100.00;97252.97;4980480;28;20211;-67
2024/01/13 01:12:56;;;;;;;42.30;17.40;;;;;;;-2.83;100.00;97254.06;4979899;28;20209;-67
2024/01/13 01:15:22;;;;;;;69.77;21.80;;;;;;;-3.10;100.00;97254.53;4978371;28;20823;-67
2024/01/13 01:17:49;;;;;;;65.73;23.23;;;;;;;-3.04;100.00;97252.50;4987075;28;20211;-66
2024/01/13 01:20:15;;;;;;;68.87;19.70;;;;;;;-2.86;100.00;97254.22;4979317;28;20234;-67
2024/01/13 01:22:42;;;;;;;61.27;21.37;;;;;;;-2.88;100.00;97266.31;4978858;28;20212;-66
2024/01/13 01:25:09;;;;;;;60.23;19.63;;;;;;;-2.99;100.00;97261.66;4977989;28;20207;-67
2024/01/13 01:27:35;;;;;;;75.93;22.77;;;;;;;-2.94;100.00;97261.44;4979007;28;20215;-66
2024/01/13 01:30:03;;;;;;;69.30;21.67;;;;;;;-2.91;100.00;97256.16;4977869;28;20210;-67
2024/01/13 01:32:30;;;;;;;86.43;23.90;;;;;;;-2.73;100.00;97255.28;4978306;28;20208;-67
2024/01/13 01:34:56;;;;;;;69.30;23.00;;;;;;;-2.60;100.00;97256.38;4977291;28;20203;-67
2024/01/13 01:37:23;;;;;;;65.03;21.67;;;;;;;-2.57;100.00;97251.06;4977521;28;20230;-67
2024/01/13 01:39:49;;;;;;;70.63;23.00;;;;;;;-2.38;100.00;97252.66;4978163;28;20239;-67
2024/01/13 01:42:16;;;;;;;75.73;23.47;;;;;;;-2.49;100.00;97248.97;4978544;28;20207;-67
2024/01/13 01:44:42;;;;;;;63.40;21.00;;;;;;;-2.67;100.00;97249.81;4977802;28;20293;-67
2024/01/13 01:47:11;;;;;;;74.17;21.70;;;;;;;-2.43;100.00;97243.47;4978182;28;20224;-67
2024/01/13 01:49:38;;;;;;;64.00;19.40;;;;;;;-2.48;100.00;97237.72;4979254;28;20223;-67
2024/01/13 01:52:06;;;;;;;68.47;20.53;;;;;;;-2.46;100.00;97233.31;4978503;28;20201;-67
2024/01/13 01:54:33;;;;;;;57.97;18.30;;;;;;;-2.45;100.00;97230.66;4978185;28;20203;-67
2024/01/13 01:57:00;;;;;;;69.67;19.47;;;;;;;-2.32;100.00;97231.72;4978148;28;20237;-67
2024/01/13 01:59:27;;;;;;;63.57;18.23;;;;;;;-2.45;100.00;97235.00;4978480;28;20207;-67
2024/01/13 02:01:54;;;;;;;56.47;17.37;;;;;;;-2.38;100.00;97227.72;4978314;28;20571;-67
2024/01/13 02:04:22;;;;;;;64.57;18.93;;;;;;;-2.55;100.00;97233.78;4977656;28;20222;-67
2024/01/13 02:06:50;;;;;;;71.73;21.67;;;;;;;-2.52;100.00;97236.19;4977421;28;20234;-67
2024/01/13 02:09:17;;;;;;;71.77;20.70;;;;;;;-2.47;100.00;97226.47;4978094;28;20212;-67
2024/01/13 02:11:44;;;;;;;72.87;22.30;;;;;;;-2.72;100.00;97220.88;4978077;28;20209;-67
2024/01/13 02:14:10;;;;;;;76.70;21.33;;;;;;;-2.53;100.00;97217.31;4977889;28;20205;-67
2024/01/13 02:16:37;;;;;;;70.23;23.03;;;;;;;-2.48;100.00;97211.91;4978031;28;20238;-67
2024/01/13 02:19:03;;;;;;;77.33;23.20;;;;;;;-2.45;100.00;97210.03;4978482;28;20654;-67
2024/01/13 02:21:31;;;;;;;66.20;20.97;;;;;;;-2.32;100.00;97211.94;4977846;28;20242;-67
2024/01/13 02:23:59;;;;;;;72.23;20.63;;;;;;;-2.42;100.00;97198.72;4977940;28;20211;-67
2024/01/13 02:26:28;;;;;;;68.20;22.37;;;;;;;-2.56;100.00;97201.97;4977030;28;20231;-67
2024/01/13 02:28:55;;;;;;;64.60;21.27;;;;;;;-2.65;100.00;97201.59;4977729;28;20210;-66
2024/01/13 02:31:21;;;;;;;70.47;22.80;;;;;;;-2.56;100.00;97195.97;4978198;28;20199;-67
2024/01/13 02:33:48;;;;;;;74.20;22.33;;;;;;;-2.54;100.00;97209.66;4977741;28;20212;-67
2024/01/13 02:36:14;;;;;;;66.87;20.80;;;;;;;-2.52;100.00;97197.50;4977277;28;20600;-67
2024/01/13 02:38:41;;;;;;;57.90;19.43;;;;;;;-2.55;100.00;97192.50;4977640;28;20214;-67
2024/01/13 02:41:09;;;;;;;69.30;21.93;;;;;;;-2.38;100.00;97191.56;4977555;28;20222;-67
2024/01/13 02:43:35;;;;;;;69.20;20.67;;;;;;;-2.50;100.00;97180.22;4977890;28;20207;-67
2024/01/13 02:46:02;;;;;;;71.00;21.97;;;;;;;-2.40;100.00;97177.91;4977267;28;20237;-67
2024/01/13 02:48:32;;;;;;;76.70;23.93;;;;;;;-2.75;100.00;97174.56;4977786;28;20588;-67
2024/01/13 02:51:01;;;;;;;72.63;20.57;;;;;;;-2.56;100.00;97162.44;4978025;28;20210;-67
2024/01/13 02:53:28;;;;;;;68.50;22.33;;;;;;;-2.82;100.00;97165.47;4977513;28;20279;-67
2024/01/13 02:55:55;;;;;;;71.93;22.00;;;;;;;-2.71;100.00;97165.75;4977144;28;20219;-67
2024/01/13 02:58:23;;;;;;;78.40;23.97;;;;;;;-2.41;100.00;97165.09;4977664;28;20232;-67
2024/01/13 03:00:49;;;;;;;69.70;20.87;;;;;;;-2.41;100.00;97153.03;4977129;28;20727;-67
2024/01/13 03:03:16;;;;;;;79.90;24.67;;;;;;;-2.44;100.00;97154.06;4977186;28;20208;-67
2024/01/13 03:05:42;;;;;;;80.07;24.73;;;;;;;-2.47;100.00;97146.50;4977063;28;20230;-67
2024/01/13 03:08:09;;;;;;;84.00;22.00;;;;;;;-2.46;100.00;97140.44;4977211;28;20270;-67
2024/01/13 03:10:36;;;;;;;70.37;20.63;;;;;;;-2.42;100.00;97147.94;4977033;28;20240;-67
2024/01/13 03:13:02;;;;;;;63.17;19.60;;;;;;;-2.53;100.00;97146.78;4977539;28;20200;-67
2024/01/13 03:15:30;;;;;;;65.73;20.63;;;;;;;-2.33;100.00;97132.84;4976784;28;20709;-67
2024/01/13 03:17:57;;;;;;;61.93;21.63;;;;;;;-2.68;100.00;97134.69;4976680;28;21232;-67
2024/01/13 03:20:23;;;;;;;79.40;21.13;;;;;;;-2.70;100.00;97131.34;4977401;28;20708;-67
2024/01/13 03:22:50;;;;;;;68.83;21.07;;;;;;;-2.74;100.00;97135.81;4977529;28;20208;-67
2024/01/13 03:25:16;;;;;;;69.87;22.47;;;;;;;-2.64;100.00;97138.78;4976742;28;20225;-67
2024/01/13 03:27:43;;;;;;;74.57;20.83;;;;;;;-2.65;100.00;97132.75;4977313;28;20299;-67
2024/01/13 03:30:10;;;;;;;67.67;19.93;;;;;;;-2.48;100.00;97131.94;4977464;28;20216;-67
2024/01/13 03:32:38;;;;;;;65.67;23.07;;;;;;;-2.48;100.00;97132.78;4976967;28;20208;-67
2024/01/13 03:35:05;;;;;;;77.20;21.53;;;;;;;-3.03;100.00;97137.31;4976788;28;20210;-67
2024/01/13 03:37:32;;;;;;;77.07;22.30;;;;;;;-3.05;100.00;97134.81;4976879;28;20208;-67
2024/01/13 03:39:58;;;;;;;74.57;23.30;;;;;;;-3.13;100.00;97142.09;4977467;28;20211;-67
2024/01/13 03:42:25;;;;;;;73.10;24.67;;;;;;;-3.19;100.00;97132.06;4977091;28;20209;-67
2024/01/13 03:44:51;;;;;;;78.30;23.83;;;;;;;-3.09;100.00;97128.13;4976533;28;20220;-67
2024/01/13 03:47:18;;;;;;;67.13;24.27;;;;;;;-3.03;100.00;97127.81;4976890;28;20230;-67
2024/01/13 03:49:46;;;;;;;80.00;24.70;;;;;;;-3.01;100.00;97119.09;4980246;28;20544;-67
2024/01/13 03:52:12;;;;;;;71.13;21.90;;;;;;;-3.14;100.00;97121.53;4980395;28;20211;-67
2024/01/13 03:54:39;;;;;;;74.57;22.67;;;;;;;-3.18;100.00;97128.59;4980413;28;20228;-67
2024/01/13 03:57:05;;;;;;;77.27;25.07;;;;;;;-2.95;100.00;97115.41;4981562;28;20228;-67
2024/01/13 03:59:32;;;;;;;77.13;24.13;;;;;;;-3.03;100.00;97112.34;4985680;28;20890;-66
2024/01/13 04:01:58;;;;;;;88.83;23.20;;;;;;;-2.89;100.00;97117.69;4980541;28;20227;-67
2024/01/13 04:04:25;;;;;;;90.80;25.17;;;;;;;-2.93;100.00;97113.59;4979882;28;20338;-67
2024/01/13 04:06:53;;;;;;;83.30;23.93;;;;;;;-2.92;100.00;97115.25;4983113;28;20234;-67
2024/01/13 04:09:19;;;;;;;83.27;24.77;;;;;;;-2.97;100.00;97117.22;4980156;28;20209;-67
2024/01/13 04:11:46;;;;;;;68.67;20.87;;;;;;;-2.86;100.00;97114.97;4980470;28;20200;-67
2024/01/13 04:14:12;;;;;;;91.60;23.60;;;;;;;-2.77;100.00;97117.09;4979503;28;20584;-67
2024/01/13 04:16:39;;;;;;;72.27;20.57;;;;;;;-2.88;100.00;97117.63;4980240;28;20230;-67
2024/01/13 04:19:05;;;;;;;166.03;42.87;;;;;;;-2.90;100.00;97119.44;4980459;28;20204;-67
2024/01/13 04:21:32;;;;;;;120.53;39.43;;;;;;;-3.07;100.00;97131.47;4980255;28;20232;-67
2024/01/13 04:24:00;;;;;;;83.70;23.57;;;;;;;-3.08;100.00;97122.09;4979987;28;20216;-67
2024/01/13 04:26:26;;;;;;;71.83;21.17;;;;;;;-3.14;100.00;97114.63;4979152;28;20228;-69
2024/01/13 04:28:53;;;;;;;84.90;26.13;;;;;;;-2.94;100.00;97111.91;4980078;28;20214;-66
2024/01/13 04:31:19;;;;;;;78.70;23.83;;;;;;;-2.91;100.00;97114.34;4980088;28;20758;-66
2024/01/13 04:33:46;;;;;;;73.63;23.57;;;;;;;-2.80;100.00;97109.47;4980114;28;20611;-66
2024/01/13 04:36:12;;;;;;;76.37;20.93;;;;;;;-2.95;100.00;97115.41;4979158;28;21127;-66
2024/01/13 04:38:39;;;;;;;68.40;23.13;;;;;;;-3.12;100.00;97111.97;4979604;28;20578;-66
2024/01/13 04:41:07;;;;;;;80.87;24.10;;;;;;;-2.89;100.00;97109.94;4979521;28;20441;-66
2024/01/13 04:43:34;;;;;;;79.33;24.97;;;;;;;-2.96;100.00;97111.16;4979955;28;20214;-66
2024/01/13 04:46:00;;;;;;;86.30;25.27;;;;;;;-2.78;100.00;97102.53;4979716;28;20223;-67
2024/01/13 04:48:27;;;;;;;70.73;22.20;;;;;;;-2.87;100.00;97102.97;4978841;28;20210;-66
2024/01/13 04:50:54;;;;;;;68.50;21.60;;;;;;;-2.90;100.00;97095.41;4979300;28;20209;-66
2024/01/13 04:53:20;;;;;;;70.17;23.00;;;;;;;-2.92;100.00;97095.44;4979694;28;20211;-66
2024/01/13 04:55:47;;;;;;;82.77;24.37;;;;;;;-2.98;100.00;97095.78;4978851;28;20297;-66
2024/01/13 04:58:15;;;;;;;66.77;22.57;;;;;;;-2.78;100.00;97089.63;4979232;28;20210;-66
2024/01/13 05:00:42;;;;;;;77.53;22.27;;;;;;;-2.86;100.00;97096.91;4979677;28;20229;-67
2024/01/13 05:03:08;;;;;;;71.67;21.40;;;;;;;-2.98;100.00;97093.19;4979292;28;20218;-66
2024/01/13 05:05:35;;;;;;;85.40;23.03;;;;;;;-3.03;100.00;97096.88;4978909;28;20261;-66
2024/01/13 05:08:01;;;;;;;75.07;22.00;;;;;;;-2.89;100.00;97099.63;4979082;28;20203;-66
2024/01/13 05:10:28;;;;;;;75.67;22.30;;;;;;;-2.88;100.00;97088.41;4979379;28;20236;-67
2024/01/13 05:12:54;;;;;;;74.67;22.20;;;;;;;-2.87;100.00;97080.59;4979278;28;21101;-67
2024/01/13 05:15:22;;;;;;;70.73;21.43;;;;;;;-2.59;100.00;97082.63;4978983;28;20204;-66
2024/01/13 05:17:49;;;;;;;66.67;22.80;;;;;;;-2.76;100.00;97086.06;4979228;28;20211;-67
2024/01/13 05:20:16;;;;;;;78.20;23.43;;;;;;;-2.86;100.00;97079.69;4979095;28;20200;-69
2024/01/13 05:22:42;;;;;;;69.07;22.57;;;;;;;-2.88;100.00;97072.94;4979068;28;20685;-69
2024/01/13 05:25:09;;;;;;;72.90;20.73;;;;;;;-2.70;100.00;97075.44;4978239;28;20207;-69
2024/01/13 05:27:35;;;;;;;61.67;20.03;;;;;;;-2.88;100.00;97075.53;4978897;28;20203;-67
2024/01/13 05:30:03;;;;;;;77.90;21.13;;;;;;;-3.02;100.00;97075.38;4978937;28;20219;-66
2024/01/13 05:32:31;;;;;;;63.17;17.57;;;;;;;-2.62;100.00;97072.44;4978859;28;20215;-66
2024/01/13 05:34:57;;;;;;;73.53;23.37;;;;;;;-2.61;100.00;97064.66;4978538;28;20204;-67
2024/01/13 05:37:24;;;;;;;68.53;21.80;;;;;;;-2.59;100.00;97057.66;4977965;28;20607;-67
2024/01/13 05:39:50;;;;;;;63.87;19.17;;;;;;;-2.54;100.00;97060.03;4978351;28;20207;-67
2024/01/13 05:42:17;;;;;;;64.80;20.67;;;;;;;-2.61;100.00;97058.66;4977919;28;20222;-69
2024/01/13 05:44:43;;;;;;;65.17;19.90;;;;;;;-2.61;100.00;97061.22;4978085;28;20207;-69
2024/01/13 05:47:10;;;;;;;73.33;21.80;;;;;;;-2.49;100.00;97068.38;4978297;28;20238;-69
2024/01/13 05:49:38;;;;;;;67.83;19.83;;;;;;;-2.45;100.00;97055.22;4978857;28;20209;-69
2024/01/13 05:52:05;;;;;;;64.50;20.87;;;;;;;-2.51;100.00;97049.53;4978257;28;20214;-69
2024/01/13 05:54:31;;;;;;;56.07;18.07;;;;;;;-2.50;100.00;97040.88;4978112;28;20210;-68
2024/01/13 05:56:58;;;;;;;69.77;20.17;;;;;;;-2.48;100.00;97052.78;4979331;28;20278;-69
2024/01/13 05:59:24;;;;;;;70.30;17.87;;;;;;;-2.47;100.00;97049.28;4978001;28;20582;-66
2024/01/13 06:01:51;;;;;;;59.90;18.27;;;;;;;-2.45;100.00;97044.06;4985537;28;20237;-67
2024/01/13 06:04:17;;;;;;;62.53;18.67;;;;;;;-2.44;100.00;97050.88;4977715;28;20635;-66
2024/01/13 06:06:45;;;;;;;67.33;20.67;;;;;;;-2.30;100.00;97052.66;4978082;28;20228;-66
2024/01/13 06:09:13;;;;;;;69.50;22.33;;;;;;;-2.27;100.00;97044.75;4978370;28;20210;-66
2024/01/13 06:11:41;;;;;;;63.27;18.30;;;;;;;-2.20;100.00;97051.25;4977739;28;20258;-67
2024/01/13 06:14:07;;;;;;;62.50;19.57;;;;;;;-2.67;100.00;97046.06;4978590;28;20208;-67
2024/01/13 06:16:34;;;;;;;67.00;19.37;;;;;;;-2.66;100.00;97034.84;4977995;28;20607;-67
2024/01/13 06:19:02;;;;;;;76.80;19.57;;;;;;;-2.68;100.00;97042.66;4978532;28;20207;-67
2024/01/13 06:21:29;;;;;;;54.00;19.07;;;;;;;-2.56;100.00;97054.91;4979155;28;20233;-66
2024/01/13 06:23:58;;;;;;;56.73;18.13;;;;;;;-2.70;100.00;97059.97;4977817;28;20587;-66
2024/01/13 06:26:25;;;;;;;64.40;18.03;;;;;;;-2.74;100.00;97065.34;4977293;28;20295;-66
2024/01/13 06:28:52;;;;;;;54.30;17.50;;;;;;;-2.73;100.00;97054.13;4978032;28;20208;-69
2024/01/13 06:31:19;;;;;;;74.60;21.13;;;;;;;-2.72;100.00;97053.22;4977684;28;21319;-69
2024/01/13 06:33:45;;;;;;;73.93;20.57;;;;;;;-2.75;100.00;97055.94;4977987;28;20211;-69
2024/01/13 06:36:12;;;;;;;64.27;20.30;;;;;;;-2.83;100.00;97052.91;4977330;28;20223;-69
2024/01/13 06:38:38;;;;;;;57.17;19.77;;;;;;;-2.86;100.00;97053.91;4977918;28;20208;-69
2024/01/13 06:41:06;;;;;;;59.33;19.00;;;;;;;-3.04;100.00;97054.00;4977842;28;20217;-69
2024/01/13 06:43:32;;;;;;;54.97;18.67;;;;;;;-3.04;100.00;97056.59;4977805;28;20695;-69
2024/01/13 06:45:59;;;;;;;60.40;17.97;;;;;;;-3.15;100.00;97056.25;4977573;28;20233;-69
2024/01/13 06:48:25;;;;;;;48.60;15.63;;;;;;;-3.33;100.00;97041.72;4981281;28;20207;-69
2024/01/13 06:50:52;;;;;;;59.87;17.70;;;;;;;-3.29;100.00;97056.09;4978326;28;20211;-69
2024/01/13 06:53:18;;;;;;;51.77;17.03;;;;;;;-3.23;100.00;97052.38;4979821;28;20199;-69
2024/01/13 06:55:45;;;;;;;63.47;18.87;;;;;;;-3.11;100.00;97039.75;4978670;28;20226;-69
2024/01/13 06:58:13;;;;;;;63.77;20.17;;;;;;;-3.12;100.00;97043.22;4992914;28;20207;-69
2024/01/13 07:00:39;;;;;;;63.50;19.93;;;;;;;-3.07;100.00;97037.84;4977477;28;20218;-69
2024/01/13 07:03:06;;;;;;;71.70;20.07;;;;;;;-3.01;100.00;97039.19;4976240;28;20230;-69
2024/01/13 07:05:32;;;;;;;84.00;28.70;;;;;;;-3.12;100.00;97029.50;4977024;28;20228;-70
2024/01/13 07:08:00;;;;;;;74.77;22.93;;;;;;;-3.24;100.00;97035.28;4977279;28;20211;-69
2024/01/13 07:10:27;;;;;;;89.40;27.97;;;;;;;-3.36;100.00;97034.13;4977167;28;20215;-69
2024/01/13 07:12:53;;;;;;;101.37;29.60;;;;;;;-3.08;100.00;97036.19;4977547;28;20212;-69
2024/01/13 07:15:21;;;;;;;65.57;20.17;;;;;;;-3.06;100.00;97039.53;4977586;28;20230;-69
2024/01/13 07:17:48;;;;;;;73.60;20.70;;;;;;;-3.27;100.00;97046.56;4977820;28;20348;-69
2024/01/13 07:20:14;;;;;;;63.73;19.10;;;;;;;-3.15;100.00;97048.53;4977726;28;20217;-69
2024/01/13 07:22:41;;;;;;;57.87;20.43;;;;;;;-3.11;100.00;97052.63;4977475;28;20237;-69
2024/01/13 07:25:09;;;;;;;80.73;25.07;;;;;;;-3.10;100.00;97049.16;4980093;28;20209;-69
2024/01/13 07:27:35;;;;;;;64.50;21.60;;;;;;;-3.16;100.00;97039.13;4980837;28;20670;-67
2024/01/13 07:30:04;;;;;;;67.83;21.57;;;;;;;-3.36;100.00;97035.84;4980979;28;20561;-67
2024/01/13 07:32:32;;;;;;;58.20;20.07;;;;;;;-3.34;100.00;97040.03;4980671;28;20531;-67
2024/01/13 07:34:58;;;;;;;59.97;19.83;;;;;;;-3.25;100.00;97052.47;4980603;28;20210;-67
2024/01/13 07:37:25;;;;;;;52.90;17.67;;;;;;;-3.31;100.00;97057.94;4979921;28;20736;-69
2024/01/13 07:39:51;;;;;;;62.00;18.10;;;;;;;-3.31;100.00;97055.34;4981512;28;20206;-69
2024/01/13 07:42:18;;;;;;;61.37;18.77;;;;;;;-3.63;100.00;97058.66;4980596;28;20313;-69
2024/01/13 07:44:44;;;;;;;62.60;20.07;;;;;;;-3.60;100.00;97058.50;4979761;28;20209;-69
2024/01/13 07:47:11;;;;;;;60.57;19.27;;;;;;;-3.50;100.00;97070.03;4980639;28;20226;-69
2024/01/13 07:49:39;;;;;;;71.27;19.97;;;;;;;-3.35;100.00;97056.38;4981152;28;20203;-69
2024/01/13 07:52:07;;;;;;;53.70;16.23;;;;;;;-3.54;100.00;97063.34;4987119;28;20207;-69
2024/01/13 07:54:34;;;;;;;64.83;20.63;;;;;;;-3.72;100.00;97052.25;4980079;28;20217;-69
2024/01/13 07:57:00;;;;;;;62.30;20.10;;;;;;;-3.61;100.00;97043.94;4980741;28;20229;-69
2024/01/13 07:59:27;;;;;;;70.10;21.73;;;;;;;-3.51;100.00;97041.78;4982981;28;20206;-69
2024/01/13 08:01:53;;;;;;;74.83;21.97;;;;;;;-3.42;100.00;97039.56;4980458;28;20233;-69
2024/01/13 08:04:20;;;;;;;47.37;15.13;;;;;;;-3.70;100.00;97040.13;4982804;28;20689;-69
2024/01/13 08:06:48;;;;;;;53.23;16.77;;;;;;;-3.26;100.00;97029.34;4980089;28;20230;-69
2024/01/13 08:09:17;;;;;;;55.87;17.53;;;;;;;-3.38;100.00;97032.53;4980199;28;20200;-69
2024/01/13 08:11:43;;;;;;;55.03;19.43;;;;;;;-3.41;100.00;97041.25;4980115;28;20576;-69
2024/01/13 08:14:10;;;;;;;60.97;19.37;;;;;;;-3.26;100.00;97039.66;4991726;28;20208;-69
2024/01/13 08:16:37;;;;;;;62.77;20.37;;;;;;;-3.49;100.00;97039.94;4979800;28;20796;-69
2024/01/13 08:19:03;;;;;;;56.30;18.43;;;;;;;-3.40;100.00;97034.34;4979993;28;20199;-69
2024/01/13 08:21:30;;;;;;;52.90;17.97;;;;;;;-3.26;100.00;97031.94;4980227;28;20645;-69
2024/01/13 08:23:57;;;;;;;48.93;16.23;;;;;;;-3.26;100.00;97032.78;4979454;28;20208;-69
2024/01/13 08:26:31;;;;;;;49.00;14.83;;;;;;;-3.37;100.00;97040.19;4979308;28;20884;-69
2024/01/13 08:28:57;;;;;;;51.93;15.43;;;;;;;-3.56;100.00;97033.44;4980099;28;20199;-69
2024/01/13 08:31:24;;;;;;;53.30;15.70;;;;;;;-3.39;100.00;97026.53;4979804;28;20649;-69
2024/01/13 08:33:51;;;;;;;55.17;15.37;;;;;;;-3.34;100.00;97016.03;4979435;28;20214;-69
2024/01/13 08:36:18;;;;;;;55.27;17.37;;;;;;;-3.47;100.00;97014.97;4979169;28;20285;-69
2024/01/13 08:38:44;;;;;;;59.80;19.90;;;;;;;-3.29;100.00;97007.16;4979717;28;20214;-69
2024/01/13 08:41:12;;;;;;;52.17;17.70;;;;;;;-3.15;100.00;96999.56;4979318;28;20601;-68
2024/01/13 08:43:40;;;;;;;56.00;16.10;;;;;;;-3.50;100.00;96997.91;4978998;28;20223;-68
2024/01/13 08:46:07;;;;;;;58.10;16.83;;;;;;;-3.22;100.00;96992.22;4984348;28;20222;-69
2024/01/13 08:48:33;;;;;;;53.63;17.67;;;;;;;-3.11;100.00;96990.75;4979977;28;20585;-68
2024/01/13 08:51:00;;;;;;;62.83;17.27;;;;;;;-3.19;100.00;96995.47;4979638;28;20203;-68
2024/01/13 08:53:27;;;;;;;54.93;17.43;;;;;;;-3.32;100.00;96993.56;4979454;28;21278;-68
2024/01/13 08:55:54;;;;;;;60.33;16.10;;;;;;;-3.43;100.00;96990.72;4979034;28;20218;-68
2024/01/13 08:58:22;;;;;;;55.73;16.63;;;;;;;-3.28;100.00;96993.38;4979459;28;20236;-68
2024/01/13 09:00:48;;;;;;;48.50;15.67;;;;;;;-3.30;100.00;96995.16;4979036;28;20199;-68
2024/01/13 09:03:15;;;;;;;48.50;15.60;;;;;;;-3.78;100.00;97001.03;4979408;28;20223;-68
2024/01/13 09:05:41;;;;;;;42.13;14.63;;;;;;;-3.73;100.00;96986.22;4979019;28;20223;-68
2024/01/13 09:08:07;;;;;;;50.60;16.50;;;;;;;-3.75;100.00;96990.63;4978653;28;20980;-68
2024/01/13 09:10:34;;;;;;;47.63;13.57;;;;;;;-4.00;100.00;97002.97;4979256;28;20206;-68
2024/01/13 09:13:00;;;;;;;41.00;13.10;;;;;;;-3.96;100.00;97007.91;4979518;28;20288;-68
2024/01/13 09:15:28;;;;;;;48.63;14.77;;;;;;;-3.64;100.00;97014.09;4978393;28;21101;-68
2024/01/13 09:17:56;;;;;;;44.60;15.90;;;;;;;-3.48;100.00;97021.84;4979042;28;20208;-68
2024/01/13 09:20:23;;;;;;;50.07;15.73;;;;;;;-3.43;100.00;97019.88;4979395;28;20214;-68
2024/01/13 09:22:49;;;;;;;48.80;16.20;;;;;;;-3.57;100.00;97019.69;4978895;28;20234;-68
2024/01/13 09:25:16;;;;;;;51.20;15.93;;;;;;;-3.63;100.00;97017.44;4978442;28;20316;-68
2024/01/13 09:27:42;;;;;;;45.40;14.73;;;;;;;-3.80;100.00;97026.03;4978989;28;20234;-68
2024/01/13 09:30:11;;;;;;;51.87;17.73;;;;;;;-3.50;100.00;97020.25;4978907;28;20196;-68
2024/01/13 09:32:39;;;;;;;44.60;14.70;;;;;;;-3.50;100.00;97022.81;4978626;28;20202;-68
2024/01/13 09:35:05;;;;;;;56.07;17.23;;;;;;;-3.50;100.00;97007.34;4977898;28;20474;-68
2024/01/13 09:37:32;;;;;;;50.07;16.30;;;;;;;-3.58;100.00;97012.91;4978818;28;20203;-68
2024/01/13 09:39:59;;;;;;;45.40;15.83;;;;;;;-3.54;100.00;97024.72;4978798;28;20682;-68
2024/01/13 09:42:31;;;;;;;41.13;14.23;;;;;;;-3.55;100.00;97022.22;4978231;28;20222;-68
2024/01/13 09:44:58;;;;;;;51.53;15.67;;;;;;;-3.58;100.00;97012.91;4977886;28;20201;-68
2024/01/13 09:47:24;;;;;;;54.87;17.53;;;;;;;-3.58;100.00;97005.19;4976708;28;20231;-68
2024/01/13 09:49:54;;;;;;;51.77;16.73;;;;;;;-3.52;100.00;97004.03;4979126;28;20211;-68
2024/01/13 09:52:23;;;;;;;60.73;18.40;;;;;;;-3.67;100.00;96994.47;4978455;28;20222;-68
2024/01/13 09:54:57;;;;;;;56.30;17.33;;;;;;;-3.62;100.00;97010.53;4986836;28;20203;-68
2024/01/13 09:57:25;;;;;;;55.03;16.93;;;;;;;-3.50;100.00;97002.22;4978414;28;20237;-68
2024/01/13 09:59:52;;;;;;;53.70;16.33;;;;;;;-3.75;100.00;96990.63;4978193;28;20202;-68
2024/01/13 10:02:18;;;;;;;62.00;18.70;;;;;;;-3.67;100.00;96991.91;4977909;28;20233;-68
2024/01/13 10:04:45;;;;;;;53.50;17.73;;;;;;;-3.48;100.00;97000.41;4977278;28;20209;-68
2024/01/13 10:07:14;;;;;;;55.90;17.67;;;;;;;-3.21;100.00;96993.88;4977479;28;20238;-68
2024/01/13 10:09:40;;;;;;;57.13;18.37;;;;;;;-3.19;100.00;96987.75;4977338;28;20309;-68
2024/01/13 10:12:08;;;;;;;47.17;16.27;;;;;;;-3.46;100.00;96989.13;4977879;28;20206;-68
2024/01/13 10:14:35;;;;;;;47.90;15.47;;;;;;;-3.45;100.00;96990.78;4976931;28;20217;-68
2024/01/13 10:17:03;;;;;;;41.57;13.50;;;;;;;-3.51;100.00;96995.41;4977221;28;20307;-69
2024/01/13 10:19:30;;;;;;;42.17;14.03;;;;;;;-3.51;100.00;96978.19;4976776;28;20203;-68
2024/01/13 10:21:57;;;;;;;50.10;13.63;;;;;;;-3.59;100.00;96982.91;4980217;28;20207;-68
2024/01/13 10:24:25;;;;;;;43.00;14.63;;;;;;;-3.56;100.00;96982.75;4979428;28;20258;-68
2024/01/13 10:26:51;;;;;;;36.07;13.10;;;;;;;-3.49;100.00;96978.97;4980234;28;20223;-68
2024/01/13 10:29:19;;;;;;;50.93;16.37;;;;;;;-3.51;100.00;96982.53;4993894;28;20230;-68
2024/01/13 10:31:50;;;;;;;40.27;13.43;;;;;;;-3.64;100.00;96973.72;4996986;28;20205;-68
2024/01/13 10:34:18;;;;;;;39.17;13.03;;;;;;;-3.79;100.00;96979.63;4995995;28;20191;-68
2024/01/13 10:36:44;;;;;;;50.57;16.80;;;;;;;-3.74;100.00;96957.06;4992662;28;20567;-68
2024/01/13 10:39:11;;;;;;;51.87;15.50;;;;;;;-3.33;100.00;96951.53;4978704;28;20585;-68
2024/01/13 10:41:44;;;;;;;46.03;14.53;;;;;;;-3.39;100.00;96944.09;4989537;28;20280;-68
2024/01/13 10:44:10;;;;;;;52.17;16.50;;;;;;;-3.34;100.00;96931.81;4996167;28;20218;-68
2024/01/13 10:46:38;;;;;;;42.90;13.17;;;;;;;-3.52;100.00;96930.16;4985407;28;20218;-68
2024/01/13 10:49:14;;;;;;;39.57;13.83;;;;;;;-3.60;100.00;96927.16;4977219;28;20229;-68
2024/01/13 10:51:43;;;;;;;42.17;13.77;;;;;;;-3.46;100.00;96922.16;4981017;28;20249;-68
2024/01/13 10:54:10;;;;;;;47.50;12.50;;;;;;;-3.72;100.00;96916.63;4983660;28;20736;-68
2024/01/13 10:56:40;;;;;;;42.27;12.87;;;;;;;-3.76;100.00;96922.00;4976433;28;20250;-68
2024/01/13 10:59:09;;;;;;;41.60;13.93;;;;;;;-3.74;100.00;96935.63;4978761;28;20381;-68
2024/01/13 11:01:36;;;;;;;43.50;13.30;;;;;;;-3.61;100.00;96922.09;4976161;28;20225;-68
2024/01/13 11:04:05;;;;;;;46.97;15.10;;;;;;;-3.36;100.00;96918.22;4976964;28;20318;-68
2024/01/13 11:06:32;;;;;;;33.57;10.37;;;;;;;-3.66;100.00;96938.69;4976009;28;20238;-68
2024/01/13 11:08:59;;;;;;;37.07;13.10;;;;;;;-3.57;100.00;96934.72;4977368;28;20330;-68